Time;durP1;ratioP1;P1;durP2;ratioP2;P2;SDS_P1;SDS_P2;PMS_P1;PMS_P2;Temp;Humidity;BMP_temperature;BMP_pressure;BME280_temperature;BME280_humidity;BME280_pressure;Samples;Min_cycle;Max_cycle;Signal;HPM_P1;HPM_P2
2022/02/15 00:02:26;;;;;;;1.20;0.90;;;7.40;98.00;;;;;;5051856;28;20454;-66
2022/02/15 00:04:53;;;;;;;1.20;0.90;;;7.50;98.00;;;;;;5034220;28;20470;-66
2022/02/15 00:07:21;;;;;;;1.20;1.10;;;7.50;98.00;;;;;;5051719;28;20519;-65
2022/02/15 00:09:48;;;;;;;1.20;1.00;;;7.40;98.00;;;;;;5051780;28;20498;-66
2022/02/15 00:12:16;;;;;;;1.30;1.10;;;7.40;98.00;;;;;;5051997;28;20498;-66
2022/02/15 00:14:43;;;;;;;1.20;1.00;;;7.40;98.00;;;;;;5051287;28;21011;-66
2022/02/15 00:17:11;;;;;;;1.20;1.00;;;7.30;98.00;;;;;;5051549;28;20456;-66
2022/02/15 00:19:38;;;;;;;1.43;1.33;;;7.30;98.00;;;;;;5033829;28;20481;-66
2022/02/15 00:22:05;;;;;;;1.20;1.00;;;7.20;98.00;;;;;;5051683;28;20546;-65
2022/02/15 00:24:32;;;;;;;1.13;0.90;;;7.20;98.00;;;;;;5051522;28;20504;-66
2022/02/15 00:27:00;;;;;;;1.20;0.90;;;7.10;98.00;;;;;;5051503;28;20574;-66
2022/02/15 00:29:27;;;;;;;1.30;1.20;;;7.20;98.00;;;;;;5049804;28;20507;-65
2022/02/15 00:31:54;;;;;;;1.20;1.00;;;7.20;98.00;;;;;;5051622;28;20462;-65
2022/02/15 00:34:22;;;;;;;1.20;1.00;;;7.20;98.00;;;;;;5051349;28;20488;-65
2022/02/15 00:36:49;;;;;;;3.50;1.87;;;7.20;98.00;;;;;;5051438;28;20456;-65
2022/02/15 00:39:16;;;;;;;1.20;1.00;;;7.20;98.00;;;;;;5051541;28;20559;-65
2022/02/15 00:41:43;;;;;;;1.20;1.00;;;7.20;98.00;;;;;;5051339;28;20493;-66
2022/02/15 00:44:10;;;;;;;1.20;1.00;;;7.20;98.00;;;;;;5051267;28;20876;-66
2022/02/15 00:46:37;;;;;;;1.60;1.00;;;7.30;98.00;;;;;;5051434;28;20485;-65
2022/02/15 00:49:05;;;;;;;1.20;0.90;;;7.40;98.00;;;;;;5051247;28;20550;-66
2022/02/15 00:51:33;;;;;;;1.53;1.07;;;7.30;98.00;;;;;;5033763;28;20460;-66
2022/02/15 00:54:01;;;;;;;1.20;0.97;;;7.30;98.00;;;;;;5051270;28;20506;-66
2022/02/15 00:56:28;;;;;;;1.40;1.00;;;7.30;98.00;;;;;;5051222;28;20514;-66
2022/02/15 00:58:55;;;;;;;1.20;0.90;;;7.30;98.00;;;;;;5050699;28;20826;-65
2022/02/15 01:01:22;;;;;;;1.20;1.00;;;7.20;98.00;;;;;;5050975;28;20541;-65
2022/02/15 01:03:49;;;;;;;1.20;0.90;;;7.10;98.00;;;;;;5033731;28;20457;-65
2022/02/15 01:06:17;;;;;;;1.20;0.97;;;7.20;98.00;;;;;;5051322;28;20547;-66
2022/02/15 01:08:46;;;;;;;1.20;1.07;;;7.10;98.00;;;;;;5051443;28;20514;-65
2022/02/15 01:11:14;;;;;;;1.20;1.00;;;7.10;98.00;;;;;;5051526;28;20464;-66
2022/02/15 01:13:41;;;;;;;2.03;1.47;;;7.20;98.00;;;;;;5051537;28;20859;-66
2022/02/15 01:16:09;;;;;;;1.40;1.30;;;7.20;98.00;;;;;;5051272;28;20487;-66
2022/02/15 01:18:36;;;;;;;1.40;1.10;;;7.20;98.00;;;;;;5050414;28;20839;-66
2022/02/15 01:21:04;;;;;;;1.30;1.10;;;7.10;98.00;;;;;;5050537;28;20789;-66
2022/02/15 01:23:32;;;;;;;1.37;1.30;;;7.10;98.00;;;;;;5050380;28;20466;-66
2022/02/15 01:26:00;;;;;;;1.20;1.00;;;7.00;98.00;;;;;;5051366;28;21023;-66
2022/02/15 01:28:27;;;;;;;1.20;1.00;;;7.00;98.00;;;;;;5054871;28;20462;-66
2022/02/15 01:30:55;;;;;;;1.20;1.10;;;7.20;98.00;;;;;;5054646;28;20550;-65
2022/02/15 01:33:23;;;;;;;1.43;1.30;;;7.20;98.00;;;;;;5054688;28;20460;-66
2022/02/15 01:35:50;;;;;;;1.50;1.40;;;7.10;98.00;;;;;;5054640;28;20973;-66
2022/02/15 01:38:17;;;;;;;1.20;1.00;;;7.10;98.00;;;;;;5054385;28;20531;-65
2022/02/15 01:40:44;;;;;;;1.20;0.90;;;7.20;98.00;;;;;;5054344;28;21136;-65
2022/02/15 01:43:15;;;;;;;1.20;1.10;;;7.20;98.00;;;;;;5054288;28;20499;-66
2022/02/15 01:45:42;;;;;;;1.20;0.90;;;7.20;98.00;;;;;;5054179;28;20545;-65
2022/02/15 01:48:13;;;;;;;1.20;1.10;;;7.20;98.00;;;;;;5054529;28;20501;-65
2022/02/15 01:50:40;;;;;;;1.20;1.00;;;7.30;98.00;;;;;;5054301;28;20454;-65
2022/02/15 01:53:07;;;;;;;1.20;0.90;;;7.20;98.00;;;;;;5054258;28;21020;-65
2022/02/15 01:55:34;;;;;;;3.10;2.20;;;7.30;98.00;;;;;;5036686;28;20500;-65
2022/02/15 01:58:02;;;;;;;1.30;1.10;;;7.40;98.00;;;;;;5054070;28;20540;-65
2022/02/15 02:00:30;;;;;;;1.20;1.00;;;7.30;98.00;;;;;;5054148;28;20930;-65
2022/02/15 02:02:57;;;;;;;1.20;1.00;;;7.30;98.00;;;;;;5036267;28;20582;-65
2022/02/15 02:08:09;;;;;;;1.20;0.90;;;7.30;98.00;;;;;;5038824;28;20832;-66
2022/02/15 02:10:36;;;;;;;1.20;1.10;;;7.20;98.00;;;;;;5054032;28;20447;-65
2022/02/15 02:13:03;;;;;;;1.20;1.00;;;7.10;98.00;;;;;;5053783;28;20463;-65
2022/02/15 02:15:32;;;;;;;1.20;1.00;;;6.90;98.00;;;;;;5053886;28;20457;-65
2022/02/15 02:18:00;;;;;;;1.50;1.30;;;6.80;98.00;;;;;;5053853;28;20512;-65
2022/02/15 02:20:29;;;;;;;1.20;1.00;;;6.70;98.00;;;;;;5053824;28;20490;-65
2022/02/15 02:22:58;;;;;;;1.23;1.07;;;6.60;98.00;;;;;;5053978;28;20541;-65
2022/02/15 02:25:35;;;;;;;1.20;0.90;;;6.40;98.00;;;;;;5053643;28;20537;-66
2022/02/15 02:28:03;;;;;;;2.00;1.07;;;6.40;98.00;;;;;;5052820;28;20505;-65
2022/02/15 02:30:30;;;;;;;1.20;0.90;;;6.30;98.00;;;;;;5054057;28;20482;-66
2022/02/15 02:32:57;;;;;;;2.23;1.23;;;6.20;98.00;;;;;;5053859;28;20502;-65
2022/02/15 02:35:24;;;;;;;1.20;1.00;;;6.10;98.00;;;;;;5053651;28;20458;-65
2022/02/15 02:37:51;;;;;;;1.20;1.00;;;6.10;98.00;;;;;;5053703;28;20893;-65
2022/02/15 02:40:20;;;;;;;1.20;1.00;;;6.10;98.00;;;;;;5053598;28;20477;-65
2022/02/15 02:42:47;;;;;;;1.30;1.00;;;5.90;98.00;;;;;;5053425;28;20472;-65
2022/02/15 02:45:16;;;;;;;1.20;1.00;;;5.90;98.00;;;;;;5053466;28;20486;-65
2022/02/15 02:47:44;;;;;;;3.20;1.93;;;5.90;98.00;;;;;;5053520;28;20579;-65
2022/02/15 02:50:12;;;;;;;1.20;1.00;;;5.90;98.00;;;;;;5053575;28;20461;-65
2022/02/15 02:52:39;;;;;;;3.90;2.70;;;5.80;98.00;;;;;;5053479;28;20465;-66
2022/02/15 02:55:08;;;;;;;1.20;0.90;;;6.00;98.00;;;;;;5053336;28;20938;-65
2022/02/15 02:57:37;;;;;;;1.20;1.00;;;5.90;98.00;;;;;;5053021;28;20488;-66
2022/02/15 03:00:06;;;;;;;1.20;1.00;;;6.00;98.00;;;;;;5052833;28;20461;-65
2022/02/15 03:02:33;;;;;;;1.20;0.97;;;6.00;98.00;;;;;;5052503;28;20453;-65
2022/02/15 03:05:00;;;;;;;1.20;0.90;;;5.80;98.00;;;;;;5052562;28;20530;-65
2022/02/15 03:07:27;;;;;;;1.17;0.90;;;5.80;98.00;;;;;;5052656;28;20906;-65
2022/02/15 03:09:54;;;;;;;1.20;0.90;;;5.70;98.00;;;;;;5052872;28;20489;-65
2022/02/15 03:12:22;;;;;;;1.20;1.00;;;5.80;98.00;;;;;;5052822;28;20915;-65
2022/02/15 03:14:50;;;;;;;1.20;1.10;;;5.80;98.00;;;;;;5052648;28;20464;-65
2022/02/15 03:17:17;;;;;;;1.20;1.10;;;5.80;98.00;;;;;;5052611;28;21135;-65
2022/02/15 03:19:45;;;;;;;1.20;1.10;;;5.80;98.00;;;;;;5052574;28;20481;-65
2022/02/15 03:22:12;;;;;;;1.20;0.90;;;5.80;98.00;;;;;;5052546;28;20520;-65
2022/02/15 03:24:39;;;;;;;1.20;1.00;;;5.80;98.00;;;;;;5052525;28;20516;-65
2022/02/15 03:27:06;;;;;;;1.43;1.10;;;5.70;98.00;;;;;;5052509;28;20486;-65
2022/02/15 03:29:33;;;;;;;1.20;1.00;;;5.70;98.00;;;;;;5052565;28;21029;-65
2022/02/15 03:32:01;;;;;;;1.30;1.07;;;5.80;98.00;;;;;;5052528;28;20547;-65
2022/02/15 03:34:28;;;;;;;1.40;1.30;;;5.90;98.00;;;;;;5052307;28;20490;-65
2022/02/15 03:36:57;;;;;;;1.10;1.00;;;5.90;98.00;;;;;;5052376;28;20450;-65
2022/02/15 03:39:24;;;;;;;1.20;1.10;;;5.90;98.00;;;;;;5034507;28;20452;-65
2022/02/15 03:44:35;;;;;;;2.07;1.53;;;5.90;98.00;;;;;;5052361;28;20795;-65
2022/02/15 03:47:04;;;;;;;1.10;0.90;;;5.90;98.00;;;;;;5052310;28;21006;-65
2022/02/15 03:49:31;;;;;;;1.13;1.00;;;6.00;98.00;;;;;;5051744;28;20568;-65
2022/02/15 03:51:58;;;;;;;1.10;0.90;;;6.00;98.00;;;;;;5052242;28;20491;-65
2022/02/15 03:54:25;;;;;;;1.10;1.00;;;6.00;98.00;;;;;;5052049;28;20970;-65
2022/02/15 03:56:52;;;;;;;1.20;1.10;;;6.10;98.00;;;;;;5052045;28;20607;-65
2022/02/15 03:59:19;;;;;;;3.20;1.80;;;6.10;98.00;;;;;;5051858;28;20493;-65
2022/02/15 04:01:46;;;;;;;1.10;1.00;;;6.10;98.00;;;;;;5034492;28;20462;-65
2022/02/15 04:04:16;;;;;;;1.40;1.40;;;6.10;98.00;;;;;;5051992;28;20456;-65
2022/02/15 04:06:43;;;;;;;1.40;1.03;;;6.10;98.00;;;;;;5034318;28;20537;-65
2022/02/15 04:09:10;;;;;;;1.10;0.93;;;6.20;98.00;;;;;;5051951;28;20493;-65
2022/02/15 04:11:37;;;;;;;1.30;1.20;;;6.20;98.00;;;;;;5051933;28;20502;-65
2022/02/15 04:14:05;;;;;;;1.10;0.90;;;6.30;98.00;;;;;;5051987;28;20512;-65
2022/02/15 04:16:34;;;;;;;1.13;0.90;;;6.40;98.00;;;;;;5052003;28;20455;-65
2022/02/15 04:19:02;;;;;;;1.10;1.00;;;6.40;98.00;;;;;;5051892;28;20460;-65
2022/02/15 04:21:30;;;;;;;1.20;1.00;;;6.40;98.00;;;;;;5051504;28;20454;-65
2022/02/15 04:23:57;;;;;;;1.10;0.90;;;6.30;98.00;;;;;;5051722;28;20685;-65
2022/02/15 04:26:25;;;;;;;1.10;0.90;;;6.40;98.00;;;;;;5051665;28;20538;-65
2022/02/15 04:28:52;;;;;;;2.30;1.33;;;6.40;98.00;;;;;;5051431;28;20569;-65
2022/02/15 04:31:19;;;;;;;1.20;1.00;;;6.40;98.00;;;;;;5051417;28;20494;-65
2022/02/15 04:33:46;;;;;;;1.30;1.20;;;6.40;98.00;;;;;;5033945;28;20476;-65
2022/02/15 04:36:13;;;;;;;1.13;0.90;;;6.30;98.00;;;;;;5051669;28;20451;-65
2022/02/15 04:38:41;;;;;;;1.17;0.90;;;6.30;98.00;;;;;;5050605;28;20452;-65
2022/02/15 04:41:09;;;;;;;7.23;1.20;;;6.20;98.00;;;;;;5051441;28;20871;-65
2022/02/15 04:43:36;;;;;;;1.23;1.20;;;6.20;98.00;;;;;;5033823;28;20459;-65
2022/02/15 04:46:03;;;;;;;1.10;0.90;;;6.30;98.00;;;;;;5051444;28;20487;-65
2022/02/15 04:48:30;;;;;;;1.20;0.90;;;6.30;98.00;;;;;;5051131;28;20519;-65
2022/02/15 04:50:57;;;;;;;1.10;0.90;;;6.30;98.00;;;;;;5034116;28;20529;-65
2022/02/15 04:53:24;;;;;;;1.70;1.37;;;6.30;98.00;;;;;;5051498;28;20457;-66
2022/02/15 04:55:52;;;;;;;1.40;1.30;;;6.30;98.00;;;;;;5051390;28;20459;-66
2022/02/15 04:58:20;;;;;;;1.63;1.53;;;6.40;98.00;;;;;;5050764;28;20486;-65
2022/02/15 05:00:48;;;;;;;1.20;0.90;;;6.40;98.00;;;;;;5051302;28;20456;-66
2022/02/15 05:03:16;;;;;;;3.37;1.67;;;6.30;98.00;;;;;;5054600;28;20595;-65
2022/02/15 05:05:43;;;;;;;1.10;0.90;;;6.30;98.00;;;;;;5055056;28;20535;-65
2022/02/15 05:08:12;;;;;;;1.20;1.00;;;6.30;98.00;;;;;;5055007;28;20518;-65
2022/02/15 05:10:41;;;;;;;1.20;1.00;;;6.30;98.00;;;;;;5055108;28;20446;-65
2022/02/15 05:13:12;;;;;;;1.90;1.60;;;6.30;98.00;;;;;;5055222;28;20505;-65
2022/02/15 05:15:40;;;;;;;1.13;0.90;;;6.30;98.00;;;;;;5055048;28;20465;-65
2022/02/15 05:18:07;;;;;;;1.13;1.00;;;6.40;98.00;;;;;;5055060;28;20940;-65
2022/02/15 05:20:34;;;;;;;1.47;1.10;;;6.40;98.00;;;;;;5055024;28;20490;-65
2022/02/15 05:23:01;;;;;;;1.17;1.00;;;6.40;98.00;;;;;;5054769;28;20490;-65
2022/02/15 05:25:28;;;;;;;1.30;1.10;;;6.40;98.00;;;;;;5054830;28;20487;-65
2022/02/15 05:27:58;;;;;;;1.20;1.00;;;6.50;98.00;;;;;;5054899;28;20521;-65
2022/02/15 05:30:27;;;;;;;1.17;0.90;;;6.40;98.00;;;;;;5037676;28;20455;-65
2022/02/15 05:32:54;;;;;;;1.10;0.90;;;6.30;98.00;;;;;;5054992;28;20541;-66
2022/02/15 05:35:22;;;;;;;1.20;1.07;;;6.30;98.00;;;;;;5054953;28;20528;-65
2022/02/15 05:37:49;;;;;;;1.13;0.90;;;6.30;98.00;;;;;;5054580;28;20458;-65
2022/02/15 05:40:18;;;;;;;1.10;0.90;;;6.30;98.00;;;;;;5054494;28;21140;-65
2022/02/15 05:42:46;;;;;;;1.20;0.90;;;6.20;98.00;;;;;;5054027;28;20566;-65
2022/02/15 05:45:13;;;;;;;1.20;1.00;;;6.30;98.00;;;;;;5054291;28;21002;-66
2022/02/15 05:47:42;;;;;;;1.17;1.00;;;6.20;98.00;;;;;;5054181;28;20486;-65
2022/02/15 05:52:54;;;;;;;1.50;1.20;;;6.20;98.00;;;;;;5054497;28;20448;-65
2022/02/15 05:55:21;;;;;;;1.20;1.07;;;6.20;98.00;;;;;;5054071;28;20469;-65
2022/02/15 05:57:48;;;;;;;1.20;1.00;;;6.20;98.00;;;;;;5054318;28;20464;-65
2022/02/15 06:00:17;;;;;;;5.43;1.70;;;6.10;98.00;;;;;;5054102;28;20458;-65
2022/02/15 06:02:46;;;;;;;1.47;1.03;;;6.20;98.00;;;;;;5053970;28;20469;-65
2022/02/15 06:05:14;;;;;;;1.20;1.00;;;6.20;98.00;;;;;;5054276;28;20497;-65
2022/02/15 06:07:41;;;;;;;1.17;1.00;;;6.20;98.00;;;;;;5053941;28;20587;-65
2022/02/15 06:10:09;;;;;;;1.30;1.30;;;6.30;98.00;;;;;;5053779;28;20455;-65
2022/02/15 06:12:38;;;;;;;1.20;0.90;;;6.30;98.00;;;;;;5053571;28;20561;-66
2022/02/15 06:15:07;;;;;;;1.23;1.03;;;6.30;98.00;;;;;;5053231;28;20494;-65
2022/02/15 06:17:34;;;;;;;1.20;1.03;;;6.20;98.00;;;;;;5053844;28;20485;-65
2022/02/15 06:20:02;;;;;;;1.17;1.07;;;6.20;98.00;;;;;;5053900;28;20997;-65
2022/02/15 06:22:30;;;;;;;2.80;1.83;;;6.20;98.00;;;;;;5053659;28;21009;-65
2022/02/15 06:24:57;;;;;;;2.00;1.30;;;6.20;98.00;;;;;;5053711;28;20493;-65
2022/02/15 06:27:24;;;;;;;1.10;0.93;;;6.20;98.00;;;;;;5053513;28;20457;-66
2022/02/15 06:29:51;;;;;;;2.47;2.37;;;6.30;98.00;;;;;;5053283;28;20543;-66
2022/02/15 06:32:18;;;;;;;1.40;1.20;;;6.30;98.00;;;;;;5052849;28;20493;-65
2022/02/15 06:34:45;;;;;;;1.20;1.03;;;6.30;98.00;;;;;;5052837;28;20501;-65
2022/02/15 06:37:15;;;;;;;2.30;1.60;;;6.40;98.00;;;;;;5053337;28;20458;-65
2022/02/15 06:39:42;;;;;;;1.30;1.27;;;6.50;98.00;;;;;;5053429;28;20466;-65
2022/02/15 06:42:10;;;;;;;1.17;1.03;;;6.40;98.00;;;;;;5053473;28;20956;-65
2022/02/15 06:44:38;;;;;;;1.20;1.10;;;6.40;98.00;;;;;;5053482;28;20502;-65
2022/02/15 06:47:06;;;;;;;1.30;1.17;;;6.40;98.00;;;;;;5035870;28;20499;-65
2022/02/15 06:49:33;;;;;;;1.20;0.90;;;6.50;98.00;;;;;;5053439;28;20994;-65
2022/02/15 06:52:00;;;;;;;1.20;1.10;;;6.50;98.00;;;;;;5053498;28;20558;-66
2022/02/15 06:54:29;;;;;;;2.27;1.53;;;6.50;98.00;;;;;;5053253;28;20924;-65
2022/02/15 06:56:56;;;;;;;1.20;0.90;;;6.50;98.00;;;;;;5053330;28;20863;-65
2022/02/15 06:59:23;;;;;;;1.17;1.10;;;6.70;98.00;;;;;;5053385;28;20877;-65
2022/02/15 07:01:50;;;;;;;1.20;1.10;;;6.80;98.00;;;;;;5053279;28;20538;-65
2022/02/15 07:04:17;;;;;;;1.50;1.30;;;6.90;98.00;;;;;;5053021;28;20790;-65
2022/02/15 07:06:44;;;;;;;1.70;1.53;;;6.90;98.00;;;;;;5052883;28;20458;-66
2022/02/15 07:09:12;;;;;;;1.20;1.00;;;6.80;98.00;;;;;;5052607;28;20980;-66
2022/02/15 07:11:41;;;;;;;2.13;1.30;;;6.90;98.00;;;;;;5053012;28;20906;-65
2022/02/15 07:14:08;;;;;;;1.20;1.00;;;6.90;98.00;;;;;;5052067;28;20458;-65
2022/02/15 07:16:38;;;;;;;1.20;1.03;;;6.90;98.00;;;;;;5052304;28;20462;-65
2022/02/15 07:19:06;;;;;;;1.10;1.00;;;6.80;98.00;;;;;;5052538;28;20812;-65
2022/02/15 07:21:33;;;;;;;1.20;1.00;;;6.70;98.00;;;;;;5052464;28;20510;-65
2022/02/15 07:24:00;;;;;;;1.20;1.00;;;6.60;98.00;;;;;;5051846;28;20541;-65
2022/02/15 07:26:27;;;;;;;1.20;1.13;;;6.70;98.00;;;;;;5052830;28;20807;-66
2022/02/15 07:28:56;;;;;;;1.17;0.93;;;6.80;98.00;;;;;;5052292;28;20521;-65
2022/02/15 07:31:23;;;;;;;1.50;1.17;;;6.90;98.00;;;;;;5052311;28;20894;-65
2022/02/15 07:33:51;;;;;;;1.20;1.00;;;7.00;98.00;;;;;;5052458;28;20488;-65
2022/02/15 07:36:19;;;;;;;1.30;1.10;;;7.10;98.00;;;;;;5052333;28;20466;-65
2022/02/15 07:38:46;;;;;;;1.20;1.00;;;7.10;98.00;;;;;;5052304;28;20449;-65
2022/02/15 07:41:14;;;;;;;1.20;1.00;;;7.20;98.00;;;;;;5052251;28;20561;-65
2022/02/15 07:43:43;;;;;;;1.20;1.00;;;7.30;98.00;;;;;;5052097;28;20455;-65
2022/02/15 07:46:11;;;;;;;1.20;1.00;;;7.30;98.00;;;;;;5052331;28;20457;-66
2022/02/15 07:48:38;;;;;;;1.20;1.00;;;7.20;98.00;;;;;;5051885;28;20545;-65
2022/02/15 07:51:05;;;;;;;1.80;1.27;;;7.40;98.00;;;;;;5034670;28;20839;-65
2022/02/15 07:53:34;;;;;;;1.47;1.43;;;7.30;98.00;;;;;;5052046;28;20997;-65
2022/02/15 07:56:01;;;;;;;1.20;0.90;;;7.30;98.00;;;;;;5051809;28;20547;-65
2022/02/15 07:58:28;;;;;;;1.20;1.13;;;7.20;98.00;;;;;;5051575;28;20495;-65
2022/02/15 08:00:55;;;;;;;1.20;1.00;;;7.20;98.00;;;;;;5052115;28;20600;-65
2022/02/15 08:03:24;;;;;;;1.17;1.00;;;7.20;98.00;;;;;;5051534;28;21079;-65
2022/02/15 08:05:52;;;;;;;1.20;0.90;;;7.20;98.00;;;;;;5051906;28;20465;-65
2022/02/15 08:08:19;;;;;;;1.20;1.10;;;7.20;98.00;;;;;;5051732;28;20539;-65
2022/02/15 08:10:47;;;;;;;1.20;0.90;;;7.10;98.00;;;;;;5051787;28;20546;-65
2022/02/15 08:13:18;;;;;;;1.17;1.03;;;7.20;98.00;;;;;;5051665;28;20457;-66
2022/02/15 08:15:47;;;;;;;1.20;1.00;;;7.20;98.00;;;;;;5051700;28;20480;-65
2022/02/15 08:18:14;;;;;;;1.50;1.20;;;7.20;98.00;;;;;;5051268;28;20507;-65
2022/02/15 08:20:43;;;;;;;1.40;1.20;;;7.20;98.00;;;;;;5051704;28;20493;-65
2022/02/15 08:23:11;;;;;;;1.20;1.00;;;7.20;98.00;;;;;;5051895;28;20828;-65
2022/02/15 08:25:39;;;;;;;1.20;0.90;;;7.30;98.00;;;;;;5050114;28;20464;-66
2022/02/15 08:28:06;;;;;;;1.20;1.00;;;7.50;98.00;;;;;;5054648;28;20446;-66
2022/02/15 08:30:33;;;;;;;1.30;1.20;;;7.50;98.00;;;;;;5048945;28;20516;-68
2022/02/15 08:33:00;;;;;;;1.97;1.57;;;7.70;98.00;;;;;;5049033;28;20458;-68
2022/02/15 08:35:27;;;;;;;1.10;0.90;;;7.70;98.00;;;;;;5051988;28;20491;-68
2022/02/15 08:37:56;;;;;;;1.20;1.07;;;7.80;98.00;;;;;;5055516;28;20453;-68
2022/02/15 08:40:23;;;;;;;1.20;1.10;;;7.80;98.00;;;;;;5055522;28;20542;-68
2022/02/15 08:42:50;;;;;;;1.20;0.90;;;7.90;98.00;;;;;;5063427;28;20465;-69
2022/02/15 08:45:17;;;;;;;1.20;1.00;;;7.90;98.00;;;;;;5045881;28;20478;-68
2022/02/15 08:47:44;;;;;;;1.20;1.00;;;7.90;98.00;;;;;;5055577;28;20522;-68
2022/02/15 08:50:12;;;;;;;1.20;0.90;;;7.90;98.00;;;;;;5053640;28;20524;-67
2022/02/15 08:52:39;;;;;;;2.80;1.30;;;7.90;98.00;;;;;;5055326;28;20468;-66
2022/02/15 08:55:10;;;;;;;1.20;1.00;;;8.00;98.00;;;;;;5055241;28;20456;-68
2022/02/15 08:57:38;;;;;;;1.20;1.00;;;8.20;98.00;;;;;;5055433;28;20503;-69
2022/02/15 09:00:07;;;;;;;1.20;0.93;;;8.20;98.00;;;;;;5055362;28;20473;-67
2022/02/15 09:02:35;;;;;;;1.20;0.90;;;8.10;98.00;;;;;;5055720;28;20468;-68
2022/02/15 09:05:03;;;;;;;1.20;1.10;;;7.90;98.00;;;;;;5055335;28;21153;-67
2022/02/15 09:07:30;;;;;;;1.20;0.93;;;7.90;98.00;;;;;;5055632;28;20454;-69
2022/02/15 09:09:58;;;;;;;1.20;1.00;;;7.80;98.00;;;;;;5054914;28;21066;-67
2022/02/15 09:12:26;;;;;;;1.10;1.00;;;7.80;98.00;;;;;;5055306;28;20929;-69
2022/02/15 09:14:53;;;;;;;2.00;1.40;;;7.70;98.00;;;;;;5059385;28;20483;-68
2022/02/15 09:17:20;;;;;;;1.20;1.00;;;7.80;98.00;;;;;;5077584;28;20516;-67
2022/02/15 09:19:51;;;;;;;1.20;0.90;;;7.80;98.00;;;;;;5060144;28;20468;-68
2022/02/15 09:22:19;;;;;;;1.30;1.17;;;7.80;98.00;;;;;;5077745;28;20486;-68
2022/02/15 09:24:47;;;;;;;1.50;1.23;;;7.80;98.00;;;;;;5077209;28;20461;-68
2022/02/15 09:27:15;;;;;;;1.20;0.90;;;7.90;98.00;;;;;;5077873;28;20496;-68
2022/02/15 09:29:44;;;;;;;1.20;1.00;;;7.90;98.00;;;;;;5059560;28;20487;-69
2022/02/15 09:32:12;;;;;;;1.20;1.10;;;8.10;98.00;;;;;;5077815;28;20974;-69
2022/02/15 09:34:39;;;;;;;1.20;1.00;;;8.10;98.00;;;;;;5077785;28;20935;-69
2022/02/15 09:37:06;;;;;;;1.20;0.90;;;8.10;98.00;;;;;;5077701;28;20459;-69
2022/02/15 09:39:33;;;;;;;1.20;0.90;;;8.00;98.00;;;;;;5077900;28;20517;-69
2022/02/15 09:41:59;;;;;;;1.20;1.00;;;7.90;98.00;;;;;;5077838;28;20461;-69
2022/02/15 09:44:27;;;;;;;1.50;1.27;;;8.10;98.00;;;;;;5077898;28;20456;-69
2022/02/15 09:46:55;;;;;;;1.20;1.07;;;8.40;98.00;;;;;;5057706;28;20463;-68
2022/02/15 09:52:10;;;;;;;1.30;1.17;;;8.30;98.00;;;;;;5074884;28;20446;-68
2022/02/15 09:54:39;;;;;;;1.20;1.00;;;8.30;98.00;;;;;;5074733;28;20854;-68
2022/02/15 09:57:06;;;;;;;1.17;1.00;;;8.20;98.00;;;;;;5074613;28;20457;-68
2022/02/15 09:59:34;;;;;;;1.20;1.00;;;8.20;98.00;;;;;;5074442;28;20495;-68
2022/02/15 10:02:09;;;;;;;1.30;1.00;;;8.10;98.00;;;;;;5074065;28;20491;-68
2022/02/15 10:04:37;;;;;;;1.73;1.20;;;8.10;98.00;;;;;;5074086;28;20478;-68
2022/02/15 10:07:06;;;;;;;1.57;1.37;;;8.20;98.00;;;;;;5074247;28;20460;-68
2022/02/15 10:09:34;;;;;;;1.13;0.90;;;8.30;98.00;;;;;;5073974;28;20517;-68
2022/02/15 10:12:06;;;;;;;1.20;1.10;;;8.30;98.00;;;;;;5073762;28;20486;-68
2022/02/15 10:14:37;;;;;;;1.20;1.10;;;8.30;98.00;;;;;;5073925;28;20457;-68
2022/02/15 10:17:08;;;;;;;1.20;1.07;;;8.40;98.00;;;;;;5074220;28;20464;-68
2022/02/15 10:19:35;;;;;;;1.20;0.97;;;8.40;98.00;;;;;;5073723;28;20463;-68
2022/02/15 10:22:06;;;;;;;1.20;1.00;;;8.40;98.00;;;;;;5073830;28;20495;-68
2022/02/15 10:24:34;;;;;;;1.20;1.00;;;8.60;98.00;;;;;;5073713;28;20549;-68
2022/02/15 10:27:03;;;;;;;1.20;1.00;;;8.70;98.00;;;;;;5073714;28;20515;-68
2022/02/15 10:29:32;;;;;;;1.20;1.00;;;8.80;98.00;;;;;;5073694;28;21009;-68
2022/02/15 10:32:00;;;;;;;1.20;1.00;;;8.90;98.00;;;;;;5073568;28;20541;-68
2022/02/15 10:34:29;;;;;;;1.20;1.00;;;8.90;98.00;;;;;;5073726;28;20549;-68
2022/02/15 10:37:06;;;;;;;1.20;1.00;;;8.90;98.00;;;;;;5073778;28;20531;-68
2022/02/15 10:39:42;;;;;;;1.20;1.00;;;8.90;98.00;;;;;;5073381;28;20799;-68
2022/02/15 10:42:11;;;;;;;1.20;1.00;;;8.90;98.00;;;;;;5073256;28;20493;-68
2022/02/15 10:44:49;;;;;;;1.20;1.00;;;8.90;98.00;;;;;;5073469;28;20459;-68
2022/02/15 10:47:16;;;;;;;1.20;1.00;;;8.90;98.00;;;;;;5073418;28;20499;-68
2022/02/15 10:49:45;;;;;;;1.20;1.00;;;8.90;98.00;;;;;;5073051;28;20578;-68
2022/02/15 10:52:13;;;;;;;1.20;0.90;;;8.80;98.00;;;;;;5073455;28;20550;-68
2022/02/15 10:54:40;;;;;;;1.20;0.90;;;8.70;98.00;;;;;;5073322;28;20457;-68
2022/02/15 10:57:11;;;;;;;1.20;1.00;;;8.80;98.00;;;;;;5073329;28;20449;-69
2022/02/15 10:59:42;;;;;;;1.20;1.00;;;8.70;98.00;;;;;;5072113;28;20463;-68
2022/02/15 11:02:15;;;;;;;1.23;1.03;;;8.70;98.00;;;;;;5071995;28;20478;-68
2022/02/15 11:04:43;;;;;;;1.20;0.90;;;8.70;98.00;;;;;;5073034;28;20451;-68
2022/02/15 11:07:14;;;;;;;1.40;1.10;;;8.70;98.00;;;;;;5073239;28;20879;-68
2022/02/15 11:09:46;;;;;;;1.20;0.97;;;8.70;98.00;;;;;;5072842;28;20486;-68
2022/02/15 11:12:22;;;;;;;1.20;1.00;;;8.70;98.00;;;;;;5073007;28;20541;-68
2022/02/15 11:14:55;;;;;;;1.20;1.10;;;8.70;98.00;;;;;;5072838;28;20491;-68
2022/02/15 11:17:26;;;;;;;1.20;1.00;;;8.50;98.00;;;;;;5073006;28;21060;-68
2022/02/15 11:20:01;;;;;;;1.10;1.00;;;8.40;98.00;;;;;;5072931;28;20815;-68
2022/02/15 11:22:29;;;;;;;1.20;1.00;;;8.40;98.00;;;;;;5072616;28;20509;-68
2022/02/15 11:24:57;;;;;;;1.20;0.90;;;8.40;98.00;;;;;;5073095;28;20568;-68
2022/02/15 11:27:25;;;;;;;1.77;1.00;;;8.40;98.00;;;;;;5071355;28;20469;-68
2022/02/15 11:29:55;;;;;;;1.20;0.90;;;8.40;98.00;;;;;;5072317;28;20488;-68
2022/02/15 11:32:26;;;;;;;1.70;1.40;;;8.40;98.00;;;;;;5072224;28;20550;-68
2022/02/15 11:34:53;;;;;;;1.20;0.90;;;8.40;98.00;;;;;;5072050;28;20491;-68
2022/02/15 11:37:23;;;;;;;1.20;0.90;;;8.40;98.00;;;;;;5072398;28;20497;-68
2022/02/15 11:40:05;;;;;;;1.20;1.00;;;8.30;98.00;;;;;;5072317;28;20494;-68
2022/02/15 11:42:45;;;;;;;1.20;0.90;;;8.40;98.00;;;;;;5072013;28;20503;-68
2022/02/15 11:45:26;;;;;;;1.20;0.90;;;8.30;98.00;;;;;;5072091;28;20542;-68
2022/02/15 11:47:55;;;;;;;1.20;1.10;;;8.40;98.00;;;;;;5072221;28;20498;-68
2022/02/15 11:50:22;;;;;;;1.20;0.90;;;8.30;98.00;;;;;;5071802;28;20519;-68
2022/02/15 11:52:49;;;;;;;1.20;1.00;;;8.40;98.00;;;;;;5071365;28;20488;-68
2022/02/15 11:55:19;;;;;;;1.30;1.00;;;8.40;98.00;;;;;;5071311;28;20861;-68
2022/02/15 11:57:47;;;;;;;1.20;1.00;;;8.40;98.00;;;;;;5071528;28;20457;-68
2022/02/15 12:00:16;;;;;;;1.20;0.90;;;8.50;98.00;;;;;;5072036;28;20456;-69
2022/02/15 12:02:54;;;;;;;1.20;1.00;;;8.50;98.00;;;;;;5071856;28;20494;-68
2022/02/15 12:05:27;;;;;;;1.20;0.93;;;8.50;98.00;;;;;;5071956;28;20522;-68
2022/02/15 12:07:54;;;;;;;1.23;1.13;;;8.40;98.00;;;;;;5071775;28;20982;-68
2022/02/15 12:10:24;;;;;;;1.20;1.00;;;8.40;98.00;;;;;;5071258;28;20492;-68
2022/02/15 12:12:53;;;;;;;1.20;1.03;;;8.30;98.00;;;;;;5071867;28;21011;-69
2022/02/15 12:15:21;;;;;;;1.20;0.90;;;8.30;98.00;;;;;;5071806;28;21305;-69
2022/02/15 12:17:50;;;;;;;1.20;0.90;;;8.30;98.00;;;;;;5071714;28;20457;-68
2022/02/15 12:20:21;;;;;;;1.20;1.00;;;8.30;98.00;;;;;;5071767;28;20480;-69
2022/02/15 12:22:50;;;;;;;1.20;0.90;;;8.30;98.00;;;;;;5070803;28;20531;-69
2022/02/15 12:25:17;;;;;;;1.60;1.50;;;8.30;98.00;;;;;;5071683;28;20451;-68
2022/02/15 12:27:47;;;;;;;1.20;0.90;;;8.30;98.00;;;;;;5071737;28;20454;-68
2022/02/15 12:30:15;;;;;;;1.20;1.00;;;8.30;98.00;;;;;;5071521;28;20496;-68
2022/02/15 12:32:46;;;;;;;1.20;1.00;;;8.30;98.00;;;;;;5071459;28;21007;-68
2022/02/15 12:35:14;;;;;;;1.20;1.00;;;8.30;98.00;;;;;;5071715;28;20534;-68
2022/02/15 12:37:45;;;;;;;1.20;1.00;;;8.30;98.00;;;;;;5071645;28;20454;-68
2022/02/15 12:40:12;;;;;;;1.20;1.00;;;8.30;98.00;;;;;;5071723;28;20462;-68
2022/02/15 12:42:42;;;;;;;1.20;1.00;;;8.40;98.00;;;;;;5071658;28;20459;-68
2022/02/15 12:45:12;;;;;;;1.20;0.90;;;8.50;98.00;;;;;;5071645;28;20562;-68
2022/02/15 12:47:43;;;;;;;1.20;0.90;;;8.60;98.00;;;;;;5071936;28;20481;-68
2022/02/15 12:50:12;;;;;;;1.20;1.00;;;8.70;98.00;;;;;;5071645;28;20486;-68
2022/02/15 12:52:40;;;;;;;1.20;1.00;;;8.80;98.00;;;;;;5071538;28;20461;-68
2022/02/15 12:55:13;;;;;;;1.20;0.90;;;8.90;98.00;;;;;;5071710;28;20565;-68
2022/02/15 12:57:42;;;;;;;1.20;1.00;;;8.90;98.00;;;;;;5070276;28;20510;-68
2022/02/15 13:00:11;;;;;;;1.20;1.10;;;9.10;98.00;;;;;;5071157;28;20482;-68
2022/02/15 13:02:39;;;;;;;1.20;0.90;;;9.20;98.00;;;;;;5071212;28;20467;-68
2022/02/15 13:05:07;;;;;;;1.20;1.10;;;9.30;98.00;;;;;;5071251;28;20463;-68
2022/02/15 13:07:46;;;;;;;1.60;1.00;;;9.30;98.00;;;;;;5071228;28;20961;-68
2022/02/15 13:10:13;;;;;;;1.20;1.00;;;9.20;98.00;;;;;;5070951;28;20490;-68
2022/02/15 13:12:40;;;;;;;1.20;1.10;;;9.20;98.00;;;;;;5071203;28;20856;-68
2022/02/15 13:15:09;;;;;;;1.37;1.20;;;9.30;98.00;;;;;;5071247;28;20461;-68